sensor_id;sensor_type;location;lat;lon;timestamp;temperature;humidity
67379;DHT22;54262;44.642;-0.974;2023-02-15T00:00:08;6.90;91.50
67379;DHT22;54262;44.642;-0.974;2023-02-15T00:02:39;6.70;91.70
67379;DHT22;54262;44.642;-0.974;2023-02-15T00:05:08;6.70;91.90
67379;DHT22;54262;44.642;-0.974;2023-02-15T00:07:34;6.60;92.20
67379;DHT22;54262;44.642;-0.974;2023-02-15T00:10:00;6.50;92.30
67379;DHT22;54262;44.642;-0.974;2023-02-15T00:12:25;6.60;92.10
67379;DHT22;54262;44.642;-0.974;2023-02-15T00:14:51;6.50;92.30
67379;DHT22;54262;44.642;-0.974;2023-02-15T00:17:17;6.70;91.70
67379;DHT22;54262;44.642;-0.974;2023-02-15T00:19:42;6.60;91.80
67379;DHT22;54262;44.642;-0.974;2023-02-15T00:22:08;6.70;92.20
67379;DHT22;54262;44.642;-0.974;2023-02-15T00:24:34;6.70;92.20
67379;DHT22;54262;44.642;-0.974;2023-02-15T00:27:00;6.80;92.30
67379;DHT22;54262;44.642;-0.974;2023-02-15T00:29:26;6.70;92.30
67379;DHT22;54262;44.642;-0.974;2023-02-15T00:31:51;6.60;92.30
67379;DHT22;54262;44.642;-0.974;2023-02-15T00:34:21;6.70;92.50
67379;DHT22;54262;44.642;-0.974;2023-02-15T00:36:47;6.60;92.50
67379;DHT22;54262;44.642;-0.974;2023-02-15T00:39:14;6.60;92.40
67379;DHT22;54262;44.642;-0.974;2023-02-15T00:41:40;6.80;92.10
67379;DHT22;54262;44.642;-0.974;2023-02-15T00:44:06;6.80;92.30
67379;DHT22;54262;44.642;-0.974;2023-02-15T00:46:32;6.70;92.20
67379;DHT22;54262;44.642;-0.974;2023-02-15T00:48:58;6.70;91.90
67379;DHT22;54262;44.642;-0.974;2023-02-15T00:51:24;6.80;92.00
67379;DHT22;54262;44.642;-0.974;2023-02-15T00:53:50;6.80;91.70
67379;DHT22;54262;44.642;-0.974;2023-02-15T00:56:15;6.80;92.00
67379;DHT22;54262;44.642;-0.974;2023-02-15T00:58:42;6.70;92.50
67379;DHT22;54262;44.642;-0.974;2023-02-15T01:01:10;6.70;92.70
67379;DHT22;54262;44.642;-0.974;2023-02-15T01:03:36;6.80;92.50
67379;DHT22;54262;44.642;-0.974;2023-02-15T01:06:05;6.80;92.40
67379;DHT22;54262;44.642;-0.974;2023-02-15T01:08:31;6.80;91.80
67379;DHT22;54262;44.642;-0.974;2023-02-15T01:11:11;6.70;92.20
67379;DHT22;54262;44.642;-0.974;2023-02-15T01:13:38;6.70;92.50
67379;DHT22;54262;44.642;-0.974;2023-02-15T01:16:04;6.70;92.40
67379;DHT22;54262;44.642;-0.974;2023-02-15T01:18:30;6.80;91.90
67379;DHT22;54262;44.642;-0.974;2023-02-15T01:20:55;6.80;92.10
67379;DHT22;54262;44.642;-0.974;2023-02-15T01:23:21;6.80;92.10
67379;DHT22;54262;44.642;-0.974;2023-02-15T01:25:47;6.70;92.50
67379;DHT22;54262;44.642;-0.974;2023-02-15T01:28:13;6.90;91.10
67379;DHT22;54262;44.642;-0.974;2023-02-15T01:30:38;6.80;92.40
67379;DHT22;54262;44.642;-0.974;2023-02-15T01:33:04;6.80;92.50
67379;DHT22;54262;44.642;-0.974;2023-02-15T01:35:30;6.70;92.80
67379;DHT22;54262;44.642;-0.974;2023-02-15T01:37:56;6.70;92.60
67379;DHT22;54262;44.642;-0.974;2023-02-15T01:40:25;6.70;92.40
67379;DHT22;54262;44.642;-0.974;2023-02-15T01:42:52;6.70;92.10
67379;DHT22;54262;44.642;-0.974;2023-02-15T01:45:22;6.70;92.70
67379;DHT22;54262;44.642;-0.974;2023-02-15T01:48:00;6.70;92.30
67379;DHT22;54262;44.642;-0.974;2023-02-15T01:50:36;6.70;92.50
67379;DHT22;54262;44.642;-0.974;2023-02-15T01:56:11;6.80;92.10
67379;DHT22;54262;44.642;-0.974;2023-02-15T01:58:38;6.80;92.10
67379;DHT22;54262;44.642;-0.974;2023-02-15T02:01:04;6.90;91.70
67379;DHT22;54262;44.642;-0.974;2023-02-15T02:06:23;6.90;92.10
67379;DHT22;54262;44.642;-0.974;2023-02-15T02:08:49;6.80;92.50
67379;DHT22;54262;44.642;-0.974;2023-02-15T02:11:15;6.80;92.00
67379;DHT22;54262;44.642;-0.974;2023-02-15T02:13:43;6.70;92.70
67379;DHT22;54262;44.642;-0.974;2023-02-15T02:16:20;6.70;93.00
67379;DHT22;54262;44.642;-0.974;2023-02-15T02:21:53;6.70;92.60
67379;DHT22;54262;44.642;-0.974;2023-02-15T02:30:10;6.80;92.60
67379;DHT22;54262;44.642;-0.974;2023-02-15T02:33:00;6.80;93.10
67379;DHT22;54262;44.642;-0.974;2023-02-15T02:38:45;7.00;91.70
67379;DHT22;54262;44.642;-0.974;2023-02-15T02:41:23;6.90;92.10
67379;DHT22;54262;44.642;-0.974;2023-02-15T02:44:09;6.90;92.20
67379;DHT22;54262;44.642;-0.974;2023-02-15T02:49:07;6.80;92.40
67379;DHT22;54262;44.642;-0.974;2023-02-15T02:51:33;6.80;92.50
67379;DHT22;54262;44.642;-0.974;2023-02-15T02:54:01;6.80;92.50
67379;DHT22;54262;44.642;-0.974;2023-02-15T02:59:06;6.70;92.20
67379;DHT22;54262;44.642;-0.974;2023-02-15T03:01:44;6.80;92.30
67379;DHT22;54262;44.642;-0.974;2023-02-15T03:04:24;6.70;92.10
67379;DHT22;54262;44.642;-0.974;2023-02-15T03:07:13;6.80;92.10
67379;DHT22;54262;44.642;-0.974;2023-02-15T03:09:45;6.70;92.90
67379;DHT22;54262;44.642;-0.974;2023-02-15T03:12:25;6.60;93.10
67379;DHT22;54262;44.642;-0.974;2023-02-15T03:17:43;6.50;93.30
67379;DHT22;54262;44.642;-0.974;2023-02-15T03:20:22;6.60;93.10
67379;DHT22;54262;44.642;-0.974;2023-02-15T03:22:58;6.40;93.40
67379;DHT22;54262;44.642;-0.974;2023-02-15T03:25:34;6.40;93.40
67379;DHT22;54262;44.642;-0.974;2023-02-15T03:28:07;6.40;93.50
67379;DHT22;54262;44.642;-0.974;2023-02-15T03:30:36;6.40;93.50
67379;DHT22;54262;44.642;-0.974;2023-02-15T03:33:04;6.40;93.30
67379;DHT22;54262;44.642;-0.974;2023-02-15T03:35:39;6.40;93.60
67379;DHT22;54262;44.642;-0.974;2023-02-15T03:38:07;6.40;93.20
67379;DHT22;54262;44.642;-0.974;2023-02-15T03:40:42;6.50;93.30
67379;DHT22;54262;44.642;-0.974;2023-02-15T03:43:44;6.50;92.80
67379;DHT22;54262;44.642;-0.974;2023-02-15T03:46:28;6.50;93.10
67379;DHT22;54262;44.642;-0.974;2023-02-15T03:51:33;6.50;93.70
67379;DHT22;54262;44.642;-0.974;2023-02-15T03:54:08;6.40;93.70
67379;DHT22;54262;44.642;-0.974;2023-02-15T03:56:40;6.50;93.50
67379;DHT22;54262;44.642;-0.974;2023-02-15T03:59:07;6.50;93.20
67379;DHT22;54262;44.642;-0.974;2023-02-15T04:04:38;6.60;92.90
67379;DHT22;54262;44.642;-0.974;2023-02-15T04:07:07;6.50;93.60
67379;DHT22;54262;44.642;-0.974;2023-02-15T04:09:33;6.50;93.40
67379;DHT22;54262;44.642;-0.974;2023-02-15T04:12:17;6.50;93.40
67379;DHT22;54262;44.642;-0.974;2023-02-15T04:14:43;6.50;93.50
67379;DHT22;54262;44.642;-0.974;2023-02-15T04:17:27;6.40;93.90
67379;DHT22;54262;44.642;-0.974;2023-02-15T04:19:53;6.50;93.10
67379;DHT22;54262;44.642;-0.974;2023-02-15T04:22:37;6.50;93.20
67379;DHT22;54262;44.642;-0.974;2023-02-15T04:25:21;6.40;94.00
67379;DHT22;54262;44.642;-0.974;2023-02-15T04:27:49;6.40;93.80
67379;DHT22;54262;44.642;-0.974;2023-02-15T04:30:17;6.30;93.90
67379;DHT22;54262;44.642;-0.974;2023-02-15T04:32:44;6.40;93.90
67379;DHT22;54262;44.642;-0.974;2023-02-15T04:35:10;6.30;93.60
67379;DHT22;54262;44.642;-0.974;2023-02-15T04:37:37;6.40;93.80
67379;DHT22;54262;44.642;-0.974;2023-02-15T04:40:04;6.40;94.00
67379;DHT22;54262;44.642;-0.974;2023-02-15T04:42:30;6.50;93.50
67379;DHT22;54262;44.642;-0.974;2023-02-15T04:44:56;6.30;94.00
67379;DHT22;54262;44.642;-0.974;2023-02-15T04:47:24;6.30;94.10
67379;DHT22;54262;44.642;-0.974;2023-02-15T04:49:50;6.30;93.50
67379;DHT22;54262;44.642;-0.974;2023-02-15T04:52:16;6.30;94.20
67379;DHT22;54262;44.642;-0.974;2023-02-15T04:54:43;6.20;94.30
67379;DHT22;54262;44.642;-0.974;2023-02-15T04:57:09;6.40;93.80
67379;DHT22;54262;44.642;-0.974;2023-02-15T04:59:34;6.30;93.80
67379;DHT22;54262;44.642;-0.974;2023-02-15T05:02:00;6.20;94.20
67379;DHT22;54262;44.642;-0.974;2023-02-15T05:04:29;6.20;94.60
67379;DHT22;54262;44.642;-0.974;2023-02-15T05:06:54;6.20;94.20
67379;DHT22;54262;44.642;-0.974;2023-02-15T05:09:20;6.20;94.50
67379;DHT22;54262;44.642;-0.974;2023-02-15T05:11:46;6.20;94.30
67379;DHT22;54262;44.642;-0.974;2023-02-15T05:14:12;6.20;94.20
67379;DHT22;54262;44.642;-0.974;2023-02-15T05:16:37;6.30;94.10
67379;DHT22;54262;44.642;-0.974;2023-02-15T05:19:03;6.30;94.20
67379;DHT22;54262;44.642;-0.974;2023-02-15T05:21:29;6.40;93.00
67379;DHT22;54262;44.642;-0.974;2023-02-15T05:23:55;6.30;93.90
67379;DHT22;54262;44.642;-0.974;2023-02-15T05:26:23;6.30;93.90
67379;DHT22;54262;44.642;-0.974;2023-02-15T05:29:08;6.20;93.90
67379;DHT22;54262;44.642;-0.974;2023-02-15T05:31:35;6.30;93.90
67379;DHT22;54262;44.642;-0.974;2023-02-15T05:34:00;6.30;93.60
67379;DHT22;54262;44.642;-0.974;2023-02-15T05:36:26;6.20;94.20
67379;DHT22;54262;44.642;-0.974;2023-02-15T05:38:53;6.30;93.30
67379;DHT22;54262;44.642;-0.974;2023-02-15T05:41:19;6.20;94.00
67379;DHT22;54262;44.642;-0.974;2023-02-15T05:43:45;6.30;93.60
67379;DHT22;54262;44.642;-0.974;2023-02-15T05:46:11;6.10;93.90
67379;DHT22;54262;44.642;-0.974;2023-02-15T05:48:40;6.10;94.40
67379;DHT22;54262;44.642;-0.974;2023-02-15T05:51:09;6.10;94.30
67379;DHT22;54262;44.642;-0.974;2023-02-15T05:53:37;6.20;93.70
67379;DHT22;54262;44.642;-0.974;2023-02-15T05:56:04;6.40;93.20
67379;DHT22;54262;44.642;-0.974;2023-02-15T05:58:33;6.20;93.90
67379;DHT22;54262;44.642;-0.974;2023-02-15T06:00:59;6.10;94.40
67379;DHT22;54262;44.642;-0.974;2023-02-15T06:03:25;6.10;94.30
67379;DHT22;54262;44.642;-0.974;2023-02-15T06:05:53;6.20;93.70
67379;DHT22;54262;44.642;-0.974;2023-02-15T06:08:19;6.10;94.40
67379;DHT22;54262;44.642;-0.974;2023-02-15T06:10:46;6.10;94.60
67379;DHT22;54262;44.642;-0.974;2023-02-15T06:13:12;6.00;94.80
67379;DHT22;54262;44.642;-0.974;2023-02-15T06:15:37;6.00;94.70
67379;DHT22;54262;44.642;-0.974;2023-02-15T06:18:03;6.00;94.70
67379;DHT22;54262;44.642;-0.974;2023-02-15T06:20:29;6.10;93.90
67379;DHT22;54262;44.642;-0.974;2023-02-15T06:22:55;6.00;94.20
67379;DHT22;54262;44.642;-0.974;2023-02-15T06:25:20;6.10;93.70
67379;DHT22;54262;44.642;-0.974;2023-02-15T06:27:46;6.00;94.20
67379;DHT22;54262;44.642;-0.974;2023-02-15T06:30:12;5.90;94.30
67379;DHT22;54262;44.642;-0.974;2023-02-15T06:32:38;6.00;94.40
67379;DHT22;54262;44.642;-0.974;2023-02-15T06:35:06;5.90;94.30
67379;DHT22;54262;44.642;-0.974;2023-02-15T06:37:31;5.90;94.60
67379;DHT22;54262;44.642;-0.974;2023-02-15T06:39:57;5.90;94.80
67379;DHT22;54262;44.642;-0.974;2023-02-15T06:42:24;5.80;94.70
67379;DHT22;54262;44.642;-0.974;2023-02-15T06:44:50;5.70;94.90
67379;DHT22;54262;44.642;-0.974;2023-02-15T06:47:15;5.70;95.20
67379;DHT22;54262;44.642;-0.974;2023-02-15T06:49:41;5.70;95.00
67379;DHT22;54262;44.642;-0.974;2023-02-15T06:52:07;5.60;94.90
67379;DHT22;54262;44.642;-0.974;2023-02-15T06:54:32;5.50;95.10
67379;DHT22;54262;44.642;-0.974;2023-02-15T06:56:58;5.50;95.00
67379;DHT22;54262;44.642;-0.974;2023-02-15T06:59:24;5.40;95.40
67379;DHT22;54262;44.642;-0.974;2023-02-15T07:01:49;5.30;95.40
67379;DHT22;54262;44.642;-0.974;2023-02-15T07:04:15;5.30;95.40
67379;DHT22;54262;44.642;-0.974;2023-02-15T07:06:41;5.20;95.40
67379;DHT22;54262;44.642;-0.974;2023-02-15T07:09:07;5.10;95.60
67379;DHT22;54262;44.642;-0.974;2023-02-15T07:11:32;5.20;95.70
67379;DHT22;54262;44.642;-0.974;2023-02-15T07:14:16;5.20;95.70
67379;DHT22;54262;44.642;-0.974;2023-02-15T07:16:42;5.20;95.80
67379;DHT22;54262;44.642;-0.974;2023-02-15T07:19:08;5.20;95.90
67379;DHT22;54262;44.642;-0.974;2023-02-15T07:21:34;5.10;95.80
67379;DHT22;54262;44.642;-0.974;2023-02-15T07:24:00;5.00;95.80
67379;DHT22;54262;44.642;-0.974;2023-02-15T07:26:26;5.00;95.90
67379;DHT22;54262;44.642;-0.974;2023-02-15T07:28:52;5.00;96.20
67379;DHT22;54262;44.642;-0.974;2023-02-15T07:31:18;5.00;96.00
67379;DHT22;54262;44.642;-0.974;2023-02-15T07:33:44;5.00;96.10
67379;DHT22;54262;44.642;-0.974;2023-02-15T07:36:10;5.00;96.10
67379;DHT22;54262;44.642;-0.974;2023-02-15T07:38:38;5.00;96.10
67379;DHT22;54262;44.642;-0.974;2023-02-15T07:41:07;5.10;96.00
67379;DHT22;54262;44.642;-0.974;2023-02-15T07:43:35;5.10;96.00
67379;DHT22;54262;44.642;-0.974;2023-02-15T07:46:03;5.10;96.10
67379;DHT22;54262;44.642;-0.974;2023-02-15T07:48:29;5.10;96.10
67379;DHT22;54262;44.642;-0.974;2023-02-15T07:50:58;5.20;96.20
67379;DHT22;54262;44.642;-0.974;2023-02-15T07:53:23;5.30;95.70
67379;DHT22;54262;44.642;-0.974;2023-02-15T07:55:49;5.30;95.60
67379;DHT22;54262;44.642;-0.974;2023-02-15T07:58:15;5.40;95.10
67379;DHT22;54262;44.642;-0.974;2023-02-15T08:00:40;5.30;95.50
67379;DHT22;54262;44.642;-0.974;2023-02-15T08:03:27;5.30;95.50
67379;DHT22;54262;44.642;-0.974;2023-02-15T08:05:58;5.40;95.80
67379;DHT22;54262;44.642;-0.974;2023-02-15T08:08:28;5.40;95.80
67379;DHT22;54262;44.642;-0.974;2023-02-15T08:13:51;5.50;95.10
67379;DHT22;54262;44.642;-0.974;2023-02-15T08:19:19;5.70;95.10
67379;DHT22;54262;44.642;-0.974;2023-02-15T08:21:51;5.70;95.30
67379;DHT22;54262;44.642;-0.974;2023-02-15T08:24:19;5.90;94.80
67379;DHT22;54262;44.642;-0.974;2023-02-15T08:26:46;6.00;95.30
67379;DHT22;54262;44.642;-0.974;2023-02-15T08:29:14;6.00;95.10
67379;DHT22;54262;44.642;-0.974;2023-02-15T08:31:43;6.20;95.10
67379;DHT22;54262;44.642;-0.974;2023-02-15T08:34:10;6.20;94.00
67379;DHT22;54262;44.642;-0.974;2023-02-15T08:36:37;6.40;94.50
67379;DHT22;54262;44.642;-0.974;2023-02-15T08:39:04;6.60;94.10
67379;DHT22;54262;44.642;-0.974;2023-02-15T08:41:32;6.60;94.20
67379;DHT22;54262;44.642;-0.974;2023-02-15T08:44:01;6.70;93.90
67379;DHT22;54262;44.642;-0.974;2023-02-15T08:46:29;6.80;93.40
67379;DHT22;54262;44.642;-0.974;2023-02-15T08:48:55;6.90;93.20
67379;DHT22;54262;44.642;-0.974;2023-02-15T08:51:41;7.00;93.10
67379;DHT22;54262;44.642;-0.974;2023-02-15T08:54:09;7.10;93.10
67379;DHT22;54262;44.642;-0.974;2023-02-15T08:56:37;7.10;93.10
67379;DHT22;54262;44.642;-0.974;2023-02-15T08:59:11;7.30;92.80
67379;DHT22;54262;44.642;-0.974;2023-02-15T09:01:37;7.30;93.00
67379;DHT22;54262;44.642;-0.974;2023-02-15T09:04:07;7.30;93.10
67379;DHT22;54262;44.642;-0.974;2023-02-15T09:06:37;7.40;93.40
67379;DHT22;54262;44.642;-0.974;2023-02-15T09:09:03;7.50;93.10
67379;DHT22;54262;44.642;-0.974;2023-02-15T09:11:35;7.70;92.70
67379;DHT22;54262;44.642;-0.974;2023-02-15T09:14:04;7.80;92.70
67379;DHT22;54262;44.642;-0.974;2023-02-15T09:16:32;7.90;92.30
67379;DHT22;54262;44.642;-0.974;2023-02-15T09:18:59;7.90;92.30
67379;DHT22;54262;44.642;-0.974;2023-02-15T09:21:29;7.90;92.20
67379;DHT22;54262;44.642;-0.974;2023-02-15T09:23:59;8.00;92.20
67379;DHT22;54262;44.642;-0.974;2023-02-15T09:26:27;8.10;91.90
67379;DHT22;54262;44.642;-0.974;2023-02-15T09:28:56;8.10;91.90
67379;DHT22;54262;44.642;-0.974;2023-02-15T09:31:25;8.20;91.80
67379;DHT22;54262;44.642;-0.974;2023-02-15T09:33:51;8.30;91.60
67379;DHT22;54262;44.642;-0.974;2023-02-15T09:36:23;8.40;91.00
67379;DHT22;54262;44.642;-0.974;2023-02-15T09:44:54;8.80;90.10
67379;DHT22;54262;44.642;-0.974;2023-02-15T09:47:39;8.80;90.20
67379;DHT22;54262;44.642;-0.974;2023-02-15T09:56:06;9.10;88.90
67379;DHT22;54262;44.642;-0.974;2023-02-15T10:09:36;9.70;85.50
67379;DHT22;54262;44.642;-0.974;2023-02-15T10:12:11;9.80;85.10
67379;DHT22;54262;44.642;-0.974;2023-02-15T10:15:07;9.70;88.90
67379;DHT22;54262;44.642;-0.974;2023-02-15T10:21:14;10.10;83.50
67379;DHT22;54262;44.642;-0.974;2023-02-15T10:23:55;10.30;82.10
67379;DHT22;54262;44.642;-0.974;2023-02-15T10:26:31;10.40;83.00
67379;DHT22;54262;44.642;-0.974;2023-02-15T10:32:23;10.40;80.60
67379;DHT22;54262;44.642;-0.974;2023-02-15T10:35:09;10.70;80.00
67379;DHT22;54262;44.642;-0.974;2023-02-15T10:45:49;11.10;77.30
67379;DHT22;54262;44.642;-0.974;2023-02-15T10:54:02;11.60;73.40
67379;DHT22;54262;44.642;-0.974;2023-02-15T10:56:58;11.80;74.10
67379;DHT22;54262;44.642;-0.974;2023-02-15T11:06:05;11.80;76.30
67379;DHT22;54262;44.642;-0.974;2023-02-15T11:08:15;11.80;70.90
67379;DHT22;54262;44.642;-0.974;2023-02-15T11:13:18;11.70;79.50
67379;DHT22;54262;44.642;-0.974;2023-02-15T11:15:53;11.80;77.40
67379;DHT22;54262;44.642;-0.974;2023-02-15T11:21:02;11.80;72.00
67379;DHT22;54262;44.642;-0.974;2023-02-15T11:23:29;12.40;69.50
67379;DHT22;54262;44.642;-0.974;2023-02-15T11:26:04;12.30;68.60
67379;DHT22;54262;44.642;-0.974;2023-02-15T11:28:39;12.30;72.40
67379;DHT22;54262;44.642;-0.974;2023-02-15T11:31:19;12.00;79.50
67379;DHT22;54262;44.642;-0.974;2023-02-15T11:33:51;11.60;83.20
67379;DHT22;54262;44.642;-0.974;2023-02-15T11:36:36;12.40;75.60
67379;DHT22;54262;44.642;-0.974;2023-02-15T11:39:12;12.00;80.60
67379;DHT22;54262;44.642;-0.974;2023-02-15T11:41:44;11.70;82.90
67379;DHT22;54262;44.642;-0.974;2023-02-15T11:44:14;12.70;72.70
67379;DHT22;54262;44.642;-0.974;2023-02-15T11:46:42;12.80;73.60
67379;DHT22;54262;44.642;-0.974;2023-02-15T11:49:23;12.40;76.00
67379;DHT22;54262;44.642;-0.974;2023-02-15T11:51:50;12.00;80.20
67379;DHT22;54262;44.642;-0.974;2023-02-15T11:54:18;12.00;80.70
67379;DHT22;54262;44.642;-0.974;2023-02-15T11:56:46;12.10;79.10
67379;DHT22;54262;44.642;-0.974;2023-02-15T11:59:34;12.10;80.70
67379;DHT22;54262;44.642;-0.974;2023-02-15T12:02:02;12.30;79.10
67379;DHT22;54262;44.642;-0.974;2023-02-15T12:04:37;12.30;79.00
67379;DHT22;54262;44.642;-0.974;2023-02-15T12:10:00;12.50;77.50
67379;DHT22;54262;44.642;-0.974;2023-02-15T12:12:38;12.80;63.50
67379;DHT22;54262;44.642;-0.974;2023-02-15T12:15:07;13.50;68.80
67379;DHT22;54262;44.642;-0.974;2023-02-15T12:17:37;14.10;58.70
67379;DHT22;54262;44.642;-0.974;2023-02-15T12:22:36;13.50;71.50
67379;DHT22;54262;44.642;-0.974;2023-02-15T12:25:28;13.30;70.00
67379;DHT22;54262;44.642;-0.974;2023-02-15T12:27:55;12.90;75.00
67379;DHT22;54262;44.642;-0.974;2023-02-15T12:30:32;12.80;75.50
67379;DHT22;54262;44.642;-0.974;2023-02-15T12:33:15;13.00;65.20
67379;DHT22;54262;44.642;-0.974;2023-02-15T12:35:42;13.10;73.30
67379;DHT22;54262;44.642;-0.974;2023-02-15T12:40:35;12.90;73.50
67379;DHT22;54262;44.642;-0.974;2023-02-15T12:43:02;13.00;72.40
67379;DHT22;54262;44.642;-0.974;2023-02-15T12:45:36;12.90;72.40
67379;DHT22;54262;44.642;-0.974;2023-02-15T12:50:33;13.30;70.30
67379;DHT22;54262;44.642;-0.974;2023-02-15T12:55:50;13.30;69.70
67379;DHT22;54262;44.642;-0.974;2023-02-15T13:00:43;13.40;68.70
67379;DHT22;54262;44.642;-0.974;2023-02-15T13:03:18;13.50;68.00
67379;DHT22;54262;44.642;-0.974;2023-02-15T13:05:46;13.60;64.90
67379;DHT22;54262;44.642;-0.974;2023-02-15T13:08:38;13.80;65.60
67379;DHT22;54262;44.642;-0.974;2023-02-15T13:11:07;13.80;66.30
67379;DHT22;54262;44.642;-0.974;2023-02-15T13:16:24;13.80;65.70
67379;DHT22;54262;44.642;-0.974;2023-02-15T13:18:52;13.90;65.80
67379;DHT22;54262;44.642;-0.974;2023-02-15T13:21:21;14.30;61.90
67379;DHT22;54262;44.642;-0.974;2023-02-15T13:23:52;14.00;64.50
67379;DHT22;54262;44.642;-0.974;2023-02-15T13:26:21;14.20;64.00
67379;DHT22;54262;44.642;-0.974;2023-02-15T13:28:59;14.00;64.50
67379;DHT22;54262;44.642;-0.974;2023-02-15T13:31:28;14.10;64.20
67379;DHT22;54262;44.642;-0.974;2023-02-15T13:34:10;14.10;64.10
67379;DHT22;54262;44.642;-0.974;2023-02-15T13:40:18;14.20;63.30
67379;DHT22;54262;44.642;-0.974;2023-02-15T13:42:54;14.30;62.60
67379;DHT22;54262;44.642;-0.974;2023-02-15T13:51:07;14.30;62.10
67379;DHT22;54262;44.642;-0.974;2023-02-15T13:53:46;14.40;61.20
67379;DHT22;54262;44.642;-0.974;2023-02-15T14:20:39;15.00;58.60
67379;DHT22;54262;44.642;-0.974;2023-02-15T14:26:14;14.90;58.90
67379;DHT22;54262;44.642;-0.974;2023-02-15T14:28:51;14.90;58.80
67379;DHT22;54262;44.642;-0.974;2023-02-15T14:31:28;15.10;57.90
67379;DHT22;54262;44.642;-0.974;2023-02-15T14:33:56;15.10;57.70
67379;DHT22;54262;44.642;-0.974;2023-02-15T14:36:23;15.10;57.90
67379;DHT22;54262;44.642;-0.974;2023-02-15T14:41:48;15.20;57.40
67379;DHT22;54262;44.642;-0.974;2023-02-15T14:44:36;15.20;57.20
67379;DHT22;54262;44.642;-0.974;2023-02-15T14:47:48;15.20;57.10
67379;DHT22;54262;44.642;-0.974;2023-02-15T14:56:05;15.40;56.30
67379;DHT22;54262;44.642;-0.974;2023-02-15T14:58:32;15.40;56.30
67379;DHT22;54262;44.642;-0.974;2023-02-15T15:01:06;15.30;56.50
67379;DHT22;54262;44.642;-0.974;2023-02-15T15:03:33;15.40;56.10
67379;DHT22;54262;44.642;-0.974;2023-02-15T15:06:02;15.40;56.00
67379;DHT22;54262;44.642;-0.974;2023-02-15T15:08:36;15.50;55.90
67379;DHT22;54262;44.642;-0.974;2023-02-15T15:13:57;15.50;55.30
67379;DHT22;54262;44.642;-0.974;2023-02-15T15:16:28;15.60;55.20
67379;DHT22;54262;44.642;-0.974;2023-02-15T15:18:54;15.60;52.00
67379;DHT22;54262;44.642;-0.974;2023-02-15T15:30:00;15.70;54.80
67379;DHT22;54262;44.642;-0.974;2023-02-15T15:32:30;15.60;54.70
67379;DHT22;54262;44.642;-0.974;2023-02-15T15:35:06;15.70;54.70
67379;DHT22;54262;44.642;-0.974;2023-02-15T15:40:42;15.80;54.40
67379;DHT22;54262;44.642;-0.974;2023-02-15T15:43:31;15.80;54.30
67379;DHT22;54262;44.642;-0.974;2023-02-15T15:49:20;15.80;53.80
67379;DHT22;54262;44.642;-0.974;2023-02-15T15:56:59;15.80;54.00
67379;DHT22;54262;44.642;-0.974;2023-02-15T15:59:28;15.80;53.80
67379;DHT22;54262;44.642;-0.974;2023-02-15T16:01:55;15.80;54.00
67379;DHT22;54262;44.642;-0.974;2023-02-15T16:04:27;15.80;54.00
67379;DHT22;54262;44.642;-0.974;2023-02-15T16:07:41;15.80;53.90
67379;DHT22;54262;44.642;-0.974;2023-02-15T16:09:58;15.80;53.50
67379;DHT22;54262;44.642;-0.974;2023-02-15T16:12:25;15.90;53.50
67379;DHT22;54262;44.642;-0.974;2023-02-15T16:14:52;15.90;53.60
67379;DHT22;54262;44.642;-0.974;2023-02-15T16:17:27;15.90;53.70
67379;DHT22;54262;44.642;-0.974;2023-02-15T16:20:03;15.80;53.20
67379;DHT22;54262;44.642;-0.974;2023-02-15T16:22:32;15.90;51.10
67379;DHT22;54262;44.642;-0.974;2023-02-15T16:27:46;15.80;53.70
67379;DHT22;54262;44.642;-0.974;2023-02-15T16:30:28;16.00;45.70
67379;DHT22;54262;44.642;-0.974;2023-02-15T16:33:17;16.00;52.90
67379;DHT22;54262;44.642;-0.974;2023-02-15T16:35:58;15.80;53.30
67379;DHT22;54262;44.642;-0.974;2023-02-15T16:38:58;15.80;53.90
67379;DHT22;54262;44.642;-0.974;2023-02-15T16:41:39;15.80;53.20
67379;DHT22;54262;44.642;-0.974;2023-02-15T16:46:49;15.80;53.40
67379;DHT22;54262;44.642;-0.974;2023-02-15T16:49:26;15.70;53.70
67379;DHT22;54262;44.642;-0.974;2023-02-15T16:52:06;15.70;53.70
67379;DHT22;54262;44.642;-0.974;2023-02-15T16:54:33;15.60;53.90
67379;DHT22;54262;44.642;-0.974;2023-02-15T16:57:00;15.60;52.50
67379;DHT22;54262;44.642;-0.974;2023-02-15T16:59:47;15.60;53.90
67379;DHT22;54262;44.642;-0.974;2023-02-15T17:02:18;15.60;53.90
67379;DHT22;54262;44.642;-0.974;2023-02-15T17:04:44;15.50;54.70
67379;DHT22;54262;44.642;-0.974;2023-02-15T17:07:20;15.40;54.30
67379;DHT22;54262;44.642;-0.974;2023-02-15T17:09:50;15.30;52.90
67379;DHT22;54262;44.642;-0.974;2023-02-15T17:18:19;14.80;52.80
67379;DHT22;54262;44.642;-0.974;2023-02-15T17:20:46;14.70;53.00
67379;DHT22;54262;44.642;-0.974;2023-02-15T17:23:32;14.60;55.00
67379;DHT22;54262;44.642;-0.974;2023-02-15T17:26:01;14.30;53.80
67379;DHT22;54262;44.642;-0.974;2023-02-15T17:28:35;14.00;54.40
67379;DHT22;54262;44.642;-0.974;2023-02-15T17:31:06;14.10;57.10
67379;DHT22;54262;44.642;-0.974;2023-02-15T17:36:23;13.60;56.40
67379;DHT22;54262;44.642;-0.974;2023-02-15T17:41:24;12.50;58.90
67379;DHT22;54262;44.642;-0.974;2023-02-15T17:43:53;12.20;60.10
67379;DHT22;54262;44.642;-0.974;2023-02-15T17:46:19;12.20;61.10
67379;DHT22;54262;44.642;-0.974;2023-02-15T17:48:50;12.10;61.00
67379;DHT22;54262;44.642;-0.974;2023-02-15T17:51:17;11.80;62.50
67379;DHT22;54262;44.642;-0.974;2023-02-15T17:53:44;11.70;62.50
67379;DHT22;54262;44.642;-0.974;2023-02-15T17:56:28;11.30;63.40
67379;DHT22;54262;44.642;-0.974;2023-02-15T17:58:54;11.00;64.70
67379;DHT22;54262;44.642;-0.974;2023-02-15T18:01:20;10.80;65.40
67379;DHT22;54262;44.642;-0.974;2023-02-15T18:04:08;10.80;65.60
67379;DHT22;54262;44.642;-0.974;2023-02-15T18:06:54;10.70;65.90
67379;DHT22;54262;44.642;-0.974;2023-02-15T18:09:38;10.50;66.60
67379;DHT22;54262;44.642;-0.974;2023-02-15T18:12:31;10.50;66.60
67379;DHT22;54262;44.642;-0.974;2023-02-15T18:14:57;10.40;67.00
67379;DHT22;54262;44.642;-0.974;2023-02-15T18:17:33;10.40;67.00
67379;DHT22;54262;44.642;-0.974;2023-02-15T18:20:00;10.20;68.10
67379;DHT22;54262;44.642;-0.974;2023-02-15T18:22:29;9.80;68.90
67379;DHT22;54262;44.642;-0.974;2023-02-15T18:24:55;9.70;69.60
67379;DHT22;54262;44.642;-0.974;2023-02-15T18:27:21;9.70;69.80
67379;DHT22;54262;44.642;-0.974;2023-02-15T18:34:58;9.60;70.50
67379;DHT22;54262;44.642;-0.974;2023-02-15T18:37:25;9.40;71.00
67379;DHT22;54262;44.642;-0.974;2023-02-15T18:39:53;9.30;71.90
67379;DHT22;54262;44.642;-0.974;2023-02-15T18:44:56;9.10;73.10
67379;DHT22;54262;44.642;-0.974;2023-02-15T18:47:22;8.90;73.90
67379;DHT22;54262;44.642;-0.974;2023-02-15T18:49:48;8.60;74.90
67379;DHT22;54262;44.642;-0.974;2023-02-15T18:52:20;8.70;74.60
67379;DHT22;54262;44.642;-0.974;2023-02-15T18:54:48;8.70;74.80
67379;DHT22;54262;44.642;-0.974;2023-02-15T18:57:16;8.50;75.40
67379;DHT22;54262;44.642;-0.974;2023-02-15T18:59:42;8.50;75.90
67379;DHT22;54262;44.642;-0.974;2023-02-15T19:02:17;8.30;76.20
67379;DHT22;54262;44.642;-0.974;2023-02-15T19:04:44;8.10;77.70
67379;DHT22;54262;44.642;-0.974;2023-02-15T19:09:47;7.90;78.20
67379;DHT22;54262;44.642;-0.974;2023-02-15T19:12:13;7.90;78.50